createdAt,value
2019-06-08T00:00:15.266Z,3.60
2019-06-08T00:02:43.835Z,4.03
2019-06-08T00:05:12.761Z,3.60
2019-06-08T00:07:41.537Z,3.67
2019-06-08T00:10:10.274Z,3.47
2019-06-08T00:12:39.129Z,3.20
2019-06-08T00:15:08.833Z,2.80
2019-06-08T00:17:39.123Z,3.05
2019-06-08T00:20:08.375Z,3.08
2019-06-08T00:22:37.148Z,3.05
2019-06-08T00:25:06.905Z,3.00
2019-06-08T00:27:35.780Z,2.67
2019-06-08T00:30:04.661Z,2.62
2019-06-08T00:32:34.495Z,2.40
2019-06-08T00:35:03.327Z,2.35
2019-06-08T00:37:32.157Z,2.30
2019-06-08T00:40:00.942Z,2.47
2019-06-08T00:42:29.640Z,2.30
2019-06-08T00:44:58.371Z,2.12
2019-06-08T00:47:44.964Z,2.40
2019-06-08T00:49:57.552Z,2.02
2019-06-08T00:52:26.241Z,2.00
2019-06-08T00:54:55.021Z,2.00
2019-06-08T00:57:23.825Z,2.05
2019-06-08T00:59:52.672Z,2.00
2019-06-08T01:02:22.547Z,2.00
2019-06-08T01:04:51.412Z,1.90
2019-06-08T01:07:22.282Z,1.55
2019-06-08T01:09:50.791Z,1.75
2019-06-08T01:12:20.510Z,1.65
2019-06-08T01:14:49.356Z,1.62
2019-06-08T01:17:19.274Z,1.62
2019-06-08T01:19:48.257Z,1.60
2019-06-08T01:22:17.141Z,1.95
2019-06-08T01:24:45.903Z,1.67
2019-06-08T01:27:14.645Z,1.50
2019-06-08T01:29:43.427Z,1.72
2019-06-08T01:32:12.201Z,1.60
2019-06-08T01:34:40.969Z,1.65
2019-06-08T01:37:09.863Z,1.70
2019-06-08T01:39:38.623Z,1.50
2019-06-08T01:42:07.444Z,1.60
2019-06-08T01:44:36.238Z,1.37
2019-06-08T01:47:05.091Z,1.42
2019-06-08T01:49:33.811Z,1.37
2019-06-08T01:52:02.691Z,1.45
2019-06-08T01:54:31.617Z,1.60
2019-06-08T01:57:00.517Z,1.10
2019-06-08T01:59:29.648Z,1.20
2019-06-08T02:01:58.581Z,1.50
2019-06-08T02:04:28.057Z,1.47
2019-06-08T02:06:57.075Z,1.62
2019-06-08T02:09:26.920Z,1.10
2019-06-08T02:11:56.126Z,1.02
2019-06-08T02:14:25.063Z,1.10
2019-06-08T02:16:54.021Z,1.27
2019-06-08T02:19:22.789Z,1.22
2019-06-08T02:21:51.552Z,1.30
2019-06-08T02:24:20.326Z,1.47
2019-06-08T02:26:49.135Z,1.60
2019-06-08T02:29:17.826Z,1.25
2019-06-08T02:31:48.312Z,1.20
2019-06-08T02:34:17.836Z,1.32
2019-06-08T02:36:46.610Z,1.20
2019-06-08T02:39:15.456Z,1.20
2019-06-08T02:41:44.275Z,1.10
2019-06-08T02:44:12.998Z,1.20
2019-06-08T02:46:42.752Z,1.00
2019-06-08T02:49:11.487Z,1.00
2019-06-08T02:51:41.123Z,0.90
2019-06-08T02:54:10.603Z,1.10
2019-06-08T02:56:41.213Z,1.30
2019-06-08T02:59:11.459Z,0.80
2019-06-08T03:01:40.856Z,1.07
2019-06-08T03:04:09.647Z,1.20
2019-06-08T03:06:41.467Z,1.00
2019-06-08T03:09:10.408Z,1.20
2019-06-08T03:11:41.349Z,1.10
2019-06-08T03:14:10.186Z,0.93
2019-06-08T03:16:43.692Z,1.20
2019-06-08T03:19:21.831Z,1.10
2019-06-08T03:21:43.147Z,0.93
2019-06-08T03:24:13.237Z,1.07
2019-06-08T03:26:44.121Z,1.20
2019-06-08T03:29:12.498Z,1.20
2019-06-08T03:31:51.210Z,0.90
2019-06-08T03:34:11.730Z,0.80
2019-06-08T03:36:53.731Z,1.00
2019-06-08T03:39:11.005Z,1.05
2019-06-08T03:41:40.453Z,1.00
2019-06-08T03:44:09.569Z,1.10
2019-06-08T03:46:38.857Z,1.00
2019-06-08T03:49:08.120Z,0.98
2019-06-08T03:51:40.223Z,1.40
2019-06-08T03:54:07.263Z,0.90
2019-06-08T03:56:37.922Z,0.90
2019-06-08T03:59:06.441Z,1.45
2019-06-08T04:01:35.231Z,0.80
2019-06-08T04:04:04.038Z,1.00
2019-06-08T04:06:32.805Z,0.70
2019-06-08T04:09:05.145Z,0.90
2019-06-08T04:11:34.026Z,0.90
2019-06-08T04:14:02.857Z,0.88
2019-06-08T04:16:31.633Z,0.80
2019-06-08T04:19:00.380Z,0.90
2019-06-08T04:21:29.170Z,0.78
2019-06-08T04:23:58.927Z,0.75
2019-06-08T04:26:27.710Z,0.70
2019-06-08T04:28:56.552Z,0.80
2019-06-08T04:31:25.333Z,0.82
2019-06-08T04:33:54.257Z,0.80
2019-06-08T04:36:23.035Z,0.70
2019-06-08T04:38:51.726Z,0.82
2019-06-08T04:41:20.458Z,0.70
2019-06-08T04:43:49.817Z,0.80
2019-06-08T04:46:18.920Z,0.75
2019-06-08T04:48:49.868Z,0.88
2019-06-08T04:51:18.111Z,0.85
2019-06-08T04:53:47.249Z,0.70
2019-06-08T04:56:16.445Z,0.68
2019-06-08T04:58:46.802Z,0.50
2019-06-08T05:01:15.645Z,0.62
2019-06-08T05:03:45.596Z,0.70
2019-06-08T05:06:14.874Z,0.60
2019-06-08T05:08:45.127Z,0.90
2019-06-08T05:11:14.070Z,0.70
2019-06-08T05:13:43.387Z,0.90
2019-06-08T05:16:13.257Z,0.60
2019-06-08T05:18:43.144Z,0.68
2019-06-08T05:21:12.039Z,0.60
2019-06-08T05:23:41.342Z,0.75
2019-06-08T05:26:10.104Z,0.65
2019-06-08T05:28:39.142Z,0.60
2019-06-08T05:31:08.655Z,0.70
2019-06-08T05:33:37.412Z,0.55
2019-06-08T05:36:06.232Z,0.50
2019-06-08T05:38:34.947Z,0.68
2019-06-08T05:41:03.897Z,0.60
2019-06-08T05:43:32.622Z,0.70
2019-06-08T05:46:01.422Z,0.50
2019-06-08T05:48:30.139Z,0.53
2019-06-08T05:51:03.947Z,0.50
2019-06-08T05:53:29.591Z,0.40
2019-06-08T05:55:58.442Z,0.60
2019-06-08T05:58:27.252Z,0.60
2019-06-08T06:00:56.757Z,0.47
2019-06-08T06:03:25.661Z,0.55
2019-06-08T06:05:54.432Z,0.50
2019-06-08T06:08:23.316Z,0.50
2019-06-08T06:10:52.201Z,0.70
2019-06-08T06:13:20.946Z,0.62
2019-06-08T06:15:51.564Z,0.60
2019-06-08T06:18:20.736Z,0.90
2019-06-08T06:20:49.499Z,0.70
2019-06-08T06:23:18.370Z,0.60
2019-06-08T06:25:47.555Z,0.60
2019-06-08T06:28:16.383Z,0.47
2019-06-08T06:30:46.625Z,0.57
2019-06-08T06:33:15.882Z,0.30
2019-06-08T06:35:45.777Z,0.40
2019-06-08T06:38:14.702Z,0.30
2019-06-08T06:40:43.930Z,0.50
2019-06-08T06:43:12.929Z,0.55
2019-06-08T06:45:41.888Z,0.57
2019-06-08T06:48:10.761Z,0.70
2019-06-08T06:50:39.579Z,0.50
2019-06-08T06:53:08.475Z,0.60
2019-06-08T06:55:37.381Z,0.40
2019-06-08T06:58:06.135Z,0.70
2019-06-08T07:00:34.944Z,0.60
2019-06-08T07:03:03.946Z,0.60
2019-06-08T07:05:32.821Z,0.53
2019-06-08T07:08:02.232Z,0.62
2019-06-08T07:10:31.244Z,0.60
2019-06-08T07:13:00.175Z,0.45
2019-06-08T07:15:29.305Z,0.50
2019-06-08T07:17:58.583Z,0.45
2019-06-08T07:20:27.924Z,0.50
2019-06-08T07:22:58.982Z,0.62
2019-06-08T07:25:28.664Z,0.53
2019-06-08T07:27:59.171Z,0.60
2019-06-08T07:30:28.412Z,0.53
2019-06-08T07:32:57.413Z,0.60
2019-06-08T07:35:26.405Z,0.60
2019-06-08T07:37:55.569Z,0.45
2019-06-08T07:40:24.562Z,0.60
2019-06-08T07:42:55.238Z,0.75
2019-06-08T07:45:24.778Z,0.70
2019-06-08T07:47:54.029Z,0.60
2019-06-08T07:50:24.077Z,0.50
2019-06-08T07:52:52.983Z,0.70
2019-06-08T07:55:21.952Z,0.50
2019-06-08T07:57:52.156Z,0.60
2019-06-08T08:00:21.112Z,0.85
2019-06-08T08:02:50.202Z,0.40
2019-06-08T08:05:19.335Z,0.60
2019-06-08T08:07:48.445Z,0.70
2019-06-08T08:10:17.833Z,0.62
2019-06-08T08:12:46.803Z,0.70
2019-06-08T08:15:15.871Z,0.60
2019-06-08T08:17:44.710Z,0.88
2019-06-08T08:20:13.799Z,0.55
2019-06-08T08:22:42.692Z,0.53
2019-06-08T08:25:11.577Z,0.93
2019-06-08T08:27:40.453Z,0.90
2019-06-08T08:30:10.011Z,2.40
2019-06-08T08:32:39.409Z,1.10
2019-06-08T08:35:08.930Z,0.80
2019-06-08T08:37:38.174Z,0.88
2019-06-08T08:40:07.825Z,1.40
2019-06-08T08:42:38.732Z,0.80
2019-06-08T08:45:08.655Z,0.75
2019-06-08T08:47:38.729Z,0.50
2019-06-08T08:50:08.004Z,0.85
2019-06-08T08:52:40.754Z,1.10
2019-06-08T08:55:09.439Z,1.02
2019-06-08T08:57:41.319Z,0.75
2019-06-08T09:00:09.605Z,0.80
2019-06-08T09:02:38.394Z,1.00
2019-06-08T09:05:08.561Z,0.60
2019-06-08T09:07:38.558Z,0.60
2019-06-08T09:10:08.562Z,0.60
2019-06-08T09:12:39.040Z,0.50
2019-06-08T09:15:08.534Z,0.50
2019-06-08T09:17:38.968Z,0.82
2019-06-08T09:20:11.054Z,0.65
2019-06-08T09:22:52.362Z,0.80
2019-06-08T09:25:08.979Z,0.70
2019-06-08T09:27:38.257Z,0.62
2019-06-08T09:30:08.317Z,0.65
2019-06-08T09:32:38.191Z,0.70
2019-06-08T09:35:09.420Z,0.62
2019-06-08T09:37:38.581Z,0.60
2019-06-08T09:40:07.783Z,0.70
2019-06-08T09:42:36.634Z,0.80
2019-06-08T09:45:08.599Z,0.75
2019-06-08T09:47:38.076Z,0.80
2019-06-08T09:50:09.170Z,1.20
2019-06-08T09:52:40.919Z,0.80
2019-06-08T09:55:09.938Z,0.80
2019-06-08T09:57:39.347Z,0.88
2019-06-08T10:00:17.893Z,0.90
2019-06-08T10:02:40.031Z,0.70
2019-06-08T10:05:08.893Z,1.30
2019-06-08T10:07:38.829Z,0.72
2019-06-08T10:10:09.721Z,0.80
2019-06-08T10:12:41.150Z,0.62
2019-06-08T10:15:09.187Z,0.95
2019-06-08T10:17:38.233Z,0.78
2019-06-08T10:20:09.861Z,0.62
2019-06-08T10:22:37.456Z,1.17
2019-06-08T10:25:10.310Z,0.88
2019-06-08T10:27:38.600Z,0.57
2019-06-08T10:30:10.092Z,0.90
2019-06-08T10:32:38.803Z,0.85
2019-06-08T10:35:10.462Z,0.60
2019-06-08T10:37:39.406Z,0.68
2019-06-08T10:40:08.941Z,0.80
2019-06-08T10:42:40.084Z,0.70
2019-06-08T10:45:12.649Z,0.85
2019-06-08T10:47:38.936Z,0.85
2019-06-08T10:50:13.720Z,0.62
2019-06-08T10:52:39.248Z,0.60
2019-06-08T10:55:10.371Z,0.80
2019-06-08T10:57:39.175Z,1.00
2019-06-08T11:00:19.278Z,0.80
2019-06-08T11:02:40.756Z,0.70
2019-06-08T11:05:13.788Z,0.80
2019-06-08T11:07:40.037Z,0.80
2019-06-08T11:10:11.760Z,0.62
2019-06-08T11:12:39.282Z,0.65
2019-06-08T11:15:11.575Z,0.70
2019-06-08T11:17:38.662Z,0.55
2019-06-08T11:20:11.824Z,0.50
2019-06-08T11:22:38.053Z,0.70
2019-06-08T11:25:15.224Z,0.47
2019-06-08T11:27:38.791Z,0.80
2019-06-08T11:30:16.790Z,1.00
2019-06-08T11:32:38.452Z,0.80
2019-06-08T11:35:10.744Z,0.80
2019-06-08T11:37:38.755Z,0.80
2019-06-08T11:40:11.877Z,0.70
2019-06-08T11:42:39.066Z,0.80
2019-06-08T11:45:11.056Z,1.00
2019-06-08T11:47:39.226Z,0.62
2019-06-08T11:50:12.596Z,0.70
2019-06-08T11:52:39.502Z,0.70
2019-06-08T11:55:11.263Z,0.90
2019-06-08T11:57:40.496Z,0.82
2019-06-08T12:00:23.488Z,0.68
2019-06-08T12:02:41.368Z,0.80
2019-06-08T12:05:12.420Z,1.17
2019-06-08T12:07:40.852Z,0.80
2019-06-08T12:10:12.492Z,0.60
2019-06-08T12:12:41.544Z,0.68
2019-06-08T12:15:13.169Z,0.68
2019-06-08T12:17:41.921Z,0.75
2019-06-08T12:20:16.851Z,0.80
2019-06-08T12:22:42.655Z,0.80
2019-06-08T12:25:12.254Z,0.68
2019-06-08T12:27:41.973Z,0.70
2019-06-08T12:30:18.641Z,0.70
2019-06-08T12:32:42.236Z,0.72
2019-06-08T12:35:12.478Z,0.70
2019-06-08T12:37:41.578Z,0.93
2019-06-08T12:40:13.231Z,0.70
2019-06-08T12:42:41.241Z,0.68
2019-06-08T12:45:11.150Z,0.72
2019-06-08T12:47:40.128Z,0.80
2019-06-08T12:50:12.745Z,0.90
2019-06-08T12:52:42.525Z,0.70
2019-06-08T12:55:14.466Z,0.95
2019-06-08T12:57:41.126Z,0.60
2019-06-08T13:00:11.533Z,0.80
2019-06-08T13:02:40.659Z,0.70
2019-06-08T13:05:13.313Z,0.98
2019-06-08T13:07:40.294Z,0.80
2019-06-08T13:10:09.084Z,0.90
2019-06-08T13:12:40.688Z,0.98
2019-06-08T13:15:10.103Z,0.72
2019-06-08T13:17:39.469Z,0.90
2019-06-08T13:20:10.576Z,0.93
2019-06-08T13:22:39.467Z,1.10
2019-06-08T13:25:21.112Z,0.98
2019-06-08T13:27:39.439Z,0.82
2019-06-08T13:30:09.489Z,0.70
2019-06-08T13:32:40.733Z,0.70
2019-06-08T13:35:10.310Z,1.07
2019-06-08T13:37:39.699Z,0.70
2019-06-08T13:40:09.147Z,0.80
2019-06-08T13:42:38.390Z,0.85
2019-06-08T13:45:08.921Z,1.05
2019-06-08T13:47:41.081Z,0.70
2019-06-08T13:50:11.076Z,0.90
2019-06-08T13:52:40.195Z,0.80
2019-06-08T13:55:09.312Z,0.93
2019-06-08T13:57:38.233Z,0.80
2019-06-08T14:00:08.011Z,0.80
2019-06-08T14:02:39.661Z,1.07
2019-06-08T14:05:08.243Z,0.90
2019-06-08T14:07:38.055Z,0.82
2019-06-08T14:10:07.978Z,1.00
2019-06-08T14:12:38.435Z,0.90
2019-06-08T14:15:08.641Z,0.85
2019-06-08T14:17:37.924Z,0.98
2019-06-08T14:20:08.047Z,0.82
2019-06-08T14:22:38.840Z,0.80
2019-06-08T14:25:10.598Z,0.80
2019-06-08T14:27:37.924Z,0.72
2019-06-08T14:30:08.346Z,0.68
2019-06-08T14:32:38.170Z,0.90
2019-06-08T14:35:08.725Z,0.95
2019-06-08T14:37:38.067Z,0.75
2019-06-08T14:40:08.161Z,0.90
2019-06-08T14:42:38.349Z,0.80
2019-06-08T14:45:10.645Z,1.02
2019-06-08T14:47:37.948Z,1.00
2019-06-08T14:50:07.968Z,0.90
2019-06-08T14:52:38.168Z,0.78
2019-06-08T14:55:08.001Z,0.65
2019-06-08T14:57:37.946Z,1.00
2019-06-08T15:00:09.569Z,1.25
2019-06-08T15:02:38.643Z,1.10
2019-06-08T15:05:07.937Z,0.90
2019-06-08T15:07:38.817Z,0.70
2019-06-08T15:10:09.796Z,0.72
2019-06-08T15:12:38.389Z,0.80
2019-06-08T15:15:08.323Z,0.78
2019-06-08T15:17:38.111Z,1.00
2019-06-08T15:20:08.802Z,0.70
2019-06-08T15:22:38.898Z,0.85
2019-06-08T15:25:11.014Z,1.62
2019-06-08T15:27:39.048Z,0.95
2019-06-08T15:30:08.090Z,1.10
2019-06-08T15:32:38.746Z,1.07
2019-06-08T15:35:08.152Z,0.80
2019-06-08T15:37:37.989Z,1.17
2019-06-08T15:40:08.007Z,0.72
2019-06-08T15:42:36.816Z,0.80
2019-06-08T15:45:08.328Z,0.90
2019-06-08T15:47:40.554Z,0.82
2019-06-08T15:50:08.835Z,0.95
2019-06-08T15:52:38.180Z,0.62
2019-06-08T15:55:10.921Z,0.90
2019-06-08T15:57:40.978Z,0.80
2019-06-08T16:00:10.216Z,0.75
2019-06-08T16:02:40.395Z,0.70
2019-06-08T16:05:09.323Z,0.88
2019-06-08T16:07:38.153Z,1.22
2019-06-08T16:10:07.557Z,0.90
2019-06-08T16:12:36.466Z,0.78
2019-06-08T16:15:05.569Z,0.78
2019-06-08T16:17:35.550Z,0.80
2019-06-08T16:20:04.818Z,0.80
2019-06-08T16:22:34.058Z,0.90
2019-06-08T16:25:03.035Z,0.80
2019-06-08T16:27:32.224Z,0.98
2019-06-08T16:30:09.356Z,0.88
2019-06-08T16:32:33.530Z,1.10
2019-06-08T16:35:02.474Z,1.00
2019-06-08T16:37:32.037Z,0.82
2019-06-08T16:40:01.588Z,1.00
2019-06-08T16:42:30.473Z,1.10
2019-06-08T16:44:59.501Z,0.90
2019-06-08T16:47:28.980Z,1.00
2019-06-08T16:49:58.100Z,1.00
2019-06-08T16:52:28.336Z,1.07
2019-06-08T16:54:57.498Z,0.80
2019-06-08T16:57:26.396Z,0.90
2019-06-08T16:59:55.258Z,1.00
2019-06-08T17:02:24.275Z,0.85
2019-06-08T17:04:53.132Z,0.80
2019-06-08T17:07:21.988Z,0.98
2019-06-08T17:09:50.922Z,1.10
2019-06-08T17:12:20.514Z,1.15
2019-06-08T17:14:49.501Z,0.90
2019-06-08T17:17:18.615Z,0.80
2019-06-08T17:19:47.355Z,0.70
2019-06-08T17:22:16.101Z,0.72
2019-06-08T17:24:45.067Z,0.72
2019-06-08T17:27:26.451Z,0.98
2019-06-08T17:29:44.337Z,1.00
2019-06-08T17:32:13.084Z,1.00
2019-06-08T17:34:42.553Z,0.80
2019-06-08T17:37:11.465Z,0.75
2019-06-08T17:39:40.314Z,1.15
2019-06-08T17:42:09.217Z,1.10
2019-06-08T17:44:38.297Z,0.90
2019-06-08T17:47:07.325Z,0.90
2019-06-08T17:49:36.777Z,0.90
2019-06-08T17:52:05.657Z,1.27
2019-06-08T17:54:34.956Z,0.80
2019-06-08T17:57:03.841Z,1.20
2019-06-08T17:59:33.156Z,0.72
2019-06-08T18:02:02.513Z,1.02
2019-06-08T18:04:31.616Z,1.10
2019-06-08T18:07:01.301Z,1.02
2019-06-08T18:09:30.684Z,1.20
2019-06-08T18:12:00.293Z,1.37
2019-06-08T18:14:30.838Z,1.00
2019-06-08T18:17:00.644Z,1.07
2019-06-08T18:19:30.561Z,0.95
2019-06-08T18:22:04.550Z,1.12
2019-06-08T18:24:31.522Z,1.20
2019-06-08T18:27:00.905Z,1.10
2019-06-08T18:29:30.594Z,1.00
2019-06-08T18:32:00.193Z,1.12
2019-06-08T18:34:29.386Z,1.40
2019-06-08T18:36:58.834Z,1.00
2019-06-08T18:39:29.360Z,1.10
2019-06-08T18:41:59.105Z,1.62
2019-06-08T18:44:29.488Z,1.05
2019-06-08T18:46:59.005Z,1.05
2019-06-08T18:49:28.814Z,1.20
2019-06-08T18:51:58.404Z,1.00
2019-06-08T18:54:28.052Z,0.90
2019-06-08T18:56:57.031Z,1.10
2019-06-08T18:59:28.607Z,1.07
2019-06-08T19:01:57.221Z,1.17
2019-06-08T19:04:30.350Z,1.10
2019-06-08T19:06:58.933Z,1.00
2019-06-08T19:09:28.649Z,1.10
2019-06-08T19:11:57.632Z,1.00
2019-06-08T19:14:29.015Z,1.10
2019-06-08T19:16:58.127Z,1.10
2019-06-08T19:19:31.058Z,1.02
2019-06-08T19:21:58.037Z,1.00
2019-06-08T19:24:28.925Z,1.20
2019-06-08T19:26:58.877Z,1.10
2019-06-08T19:29:28.321Z,1.10
2019-06-08T19:32:00.498Z,1.17
2019-06-08T19:34:33.277Z,0.90
2019-06-08T19:37:00.611Z,0.95
2019-06-08T19:39:30.443Z,1.10
2019-06-08T19:42:00.186Z,1.00
2019-06-08T19:44:29.794Z,1.10
2019-06-08T19:46:59.858Z,1.12
2019-06-08T19:49:29.462Z,1.10
2019-06-08T19:51:58.852Z,1.20
2019-06-08T19:54:28.366Z,1.00
2019-06-08T19:56:57.767Z,1.20
2019-06-08T19:59:27.992Z,0.90
2019-06-08T20:01:59.871Z,0.90
2019-06-08T20:04:30.002Z,1.20
2019-06-08T20:07:00.635Z,1.07
2019-06-08T20:09:30.687Z,1.07
2019-06-08T20:12:00.400Z,1.10
2019-06-08T20:14:30.390Z,1.20
2019-06-08T20:17:00.588Z,0.98
2019-06-08T20:19:30.470Z,1.00
2019-06-08T20:22:00.195Z,0.90
2019-06-08T20:24:30.425Z,0.82
2019-06-08T20:27:00.388Z,1.22
2019-06-08T20:29:30.246Z,1.20
2019-06-08T20:31:59.550Z,1.10
2019-06-08T20:34:29.243Z,1.10
2019-06-08T20:37:01.423Z,0.90
2019-06-08T20:39:30.538Z,1.02
2019-06-08T20:42:00.342Z,1.00
2019-06-08T20:44:31.238Z,0.80
2019-06-08T20:47:01.042Z,1.07
2019-06-08T20:49:30.686Z,0.90
2019-06-08T20:52:00.369Z,0.93
2019-06-08T20:54:30.227Z,0.98
2019-06-08T20:56:59.197Z,1.20
2019-06-08T20:59:33.153Z,1.00
2019-06-08T21:01:59.607Z,0.98
2019-06-08T21:04:29.631Z,0.90
2019-06-08T21:06:58.621Z,0.90
2019-06-08T21:09:28.095Z,0.98
2019-06-08T21:11:58.820Z,1.00
2019-06-08T21:14:29.488Z,0.95
2019-06-08T21:16:58.827Z,1.00
2019-06-08T21:19:28.544Z,1.10
2019-06-08T21:21:59.285Z,1.10
2019-06-08T21:24:28.391Z,0.78
2019-06-08T21:27:00.534Z,0.80
2019-06-08T21:29:46.532Z,0.80
2019-06-08T21:32:02.138Z,0.90
2019-06-08T21:34:29.349Z,1.20
2019-06-08T21:37:00.863Z,0.98
2019-06-08T21:39:29.376Z,0.90
2019-06-08T21:42:02.582Z,0.90
2019-06-08T21:44:29.265Z,1.05
2019-06-08T21:47:01.323Z,1.15
2019-06-08T21:49:29.186Z,0.98
2019-06-08T21:52:00.819Z,1.25
2019-06-08T21:54:28.852Z,0.82
2019-06-08T21:57:00.654Z,1.12
2019-06-08T21:59:28.441Z,1.10
2019-06-08T22:02:00.932Z,0.93
2019-06-08T22:04:27.945Z,0.90
2019-06-08T22:06:59.643Z,1.00
2019-06-08T22:09:29.042Z,1.00
2019-06-08T22:12:00.459Z,0.90
2019-06-08T22:14:28.848Z,0.80
2019-06-08T22:17:00.978Z,0.85
2019-06-08T22:19:28.261Z,1.00
2019-06-08T22:22:00.277Z,0.90
2019-06-08T22:24:29.254Z,0.90
2019-06-08T22:27:01.739Z,0.65
2019-06-08T22:29:29.770Z,0.75
2019-06-08T22:31:59.764Z,0.78
2019-06-08T22:34:28.836Z,0.72
2019-06-08T22:36:59.936Z,0.80
2019-06-08T22:39:28.588Z,0.80
2019-06-08T22:41:58.498Z,0.70
2019-06-08T22:44:28.499Z,0.90
2019-06-08T22:46:59.447Z,0.80
2019-06-08T22:49:28.256Z,0.80
2019-06-08T22:51:59.304Z,0.80
2019-06-08T22:54:28.115Z,0.70
2019-06-08T22:56:59.773Z,0.72
2019-06-08T22:59:27.738Z,0.55
2019-06-08T23:02:01.026Z,0.60
2019-06-08T23:04:28.272Z,0.70
2019-06-08T23:06:59.671Z,0.80
2019-06-08T23:09:28.383Z,0.80
2019-06-08T23:12:01.408Z,0.85
2019-06-08T23:14:28.578Z,0.78
2019-06-08T23:16:59.582Z,0.75
2019-06-08T23:19:27.880Z,0.60
2019-06-08T23:21:59.250Z,0.60
2019-06-08T23:24:27.462Z,0.55
2019-06-08T23:26:56.322Z,0.70
2019-06-08T23:29:27.295Z,0.80
2019-06-08T23:31:57.200Z,0.60
2019-06-08T23:34:27.677Z,0.90
2019-06-08T23:37:00.056Z,0.80
2019-06-08T23:39:28.454Z,0.80
2019-06-08T23:41:57.670Z,0.70
2019-06-08T23:44:28.311Z,0.70
2019-06-08T23:46:58.562Z,0.80
2019-06-08T23:49:27.803Z,0.70
2019-06-08T23:51:59.627Z,0.80
2019-06-08T23:54:28.033Z,0.50
2019-06-08T23:56:56.969Z,0.60
2019-06-08T23:59:27.713Z,0.72
